SBVT/VIX METAR and TAF weather

Enter ICAO airport designator
Station Type Date Time Source
SBVT METAR 2019/08/22 20:00 UTC NOAA

SBVT 222000Z 18010KT 9999 SCT040 BKN050 22/16 Q1022


Station Type Date Time Source
SBVT Decoded METAR 2019/08/22 20:00 UTC NOAA

Station name not available
Aug 22, 2019 - 04:00 PM EDT / 2019.08.22 2000 UTC
Wind: from the S (180 degrees) at 12 MPH (10 KT):0
Visibility: greater than 7 mile(s):0
Sky conditions: mostly cloudy
Temperature: 71 F (22 C)
Dew Point: 60 F (16 C)
Relative Humidity: 68%
Pressure (altimeter): 30.18 in. Hg (1022 hPa)
ob: SBVT 222000Z 18010KT 9999 SCT040 BKN050 22/16 Q1022
cycle: 20

Station Type Date Time Source
SBVT TAF 2019/08/22 18:30 UTC NOAA

TAF SBVT 221600Z 2218/2306 18010KT 9999 SCT040 TX24/2218Z TN20/2306Z
BECMG 2222/2224 24003KT CAVOK
RMK PEH

Example: see airport list